MAPA DE AEROPUERTO

INFORMACIÓN METAR y TAF

METAR FOR LEMH
ADDS - METARS form results

(0546 UTC 10 May 2021)
Data provider http://aviationweather.gov/metar/data/
 
METAR text: LEMH 100542Z 23004KT 190V250 7000 SHRA FEW042TCU 18/16 Q1009
Conditions at: LEMH (MAHON/MENORCA IS, ES) observed 0542 UTC 10 May 2021
Temperature: 18.0°C (64°F)
Dewpoint: 16.0°C (61°F) [RH = 88%]
Pressure (altimeter): 29.79 inches Hg (1009.0 mb)
Winds: from the SW (230 degrees) at 5 MPH (4 knots; 2.1 m/s)
Visibility: 4 miles ( 7 km)
Ceiling: at least 12,000 feet AGL
Clouds: few clouds at 4200 feet AGL
Weather: SHRA  (rain showers)

METAR text: LEMH 100530Z 14005KT 120V180 9999 FEW040TCU 18/16 Q1009
Conditions at: LEMH (MAHON/MENORCA IS, ES) observed 0530 UTC 10 May 2021
Temperature: 18.0°C (64°F)
Dewpoint: 16.0°C (61°F) [RH = 88%]
Pressure (altimeter): 29.79 inches Hg (1009.0 mb)
Winds: from the SE (140 degrees) at 6 MPH (5 knots; 2.6 m/s)
Visibility: 6 or more miles (10+ km)
Ceiling: at least 12,000 feet AGL
Clouds: few clouds at 4000 feet AGL
Weather: no significant weather observed at this time

METAR text: LEMH 100500Z 20007KT 9000 -SHRA FEW040TCU 18/16 Q1009
Conditions at: LEMH (MAHON/MENORCA IS, ES) observed 0500 UTC 10 May 2021
Temperature: 18.0°C (64°F)
Dewpoint: 16.0°C (61°F) [RH = 88%]
Pressure (altimeter): 29.79 inches Hg (1009.0 mb)
Winds: from the SSW (200 degrees) at 8 MPH (7 knots; 3.6 m/s)
Visibility: 6 miles ( 9 km)
Ceiling: at least 12,000 feet AGL
Clouds: few clouds at 4000 feet AGL
Weather: -SHRA  (light rain showers)

Forecast for: LEMH (MAHON/MENORCA IS, ES)
Text: TAF LEMH 100200Z 1003/1103 VRB04KT 9999 SCT050 TX22/1015Z TN13/1005Z
Forecast period: 0300 to 0600 UTC 10 May 2021
Forecast type: FROM: standard forecast or significant change
Winds: variable direction winds at 5 MPH (4 knots; 2.1 m/s)
Visibility: 6 or more miles (10+ km)
Ceiling: at least 12,000 feet AGL
Clouds: scattered clouds at 5000 feet AGL
Weather: no significant weather forecast for this period
Text: PROB30
Forecast period: 0300 to 1600 UTC 10 May 2021
Forecast type: TEMPORARY: The following changes expected for less than half the time period
Visibility: 2.49 miles (4.01 km)
Ceiling: 4000 feet AGL
Clouds: few clouds at 3000 feet AGL
broken clouds at 4000 feet AGL
Weather: TSRA  (rain associated with thunderstorm(s))
Text: TEMPO 1003/1016 4000 TSRA FEW030CB BKN040
Forecast period: 0600 to 1300 UTC 10 May 2021
Forecast type: BECOMING: Conditions expected to become as follows by 0800 UTC 10 May 2021
Winds: from the W (270 degrees) at 12 MPH (10 knots; 5.1 m/s)
Visibility: 6 or more miles (10+ km)
Ceiling: at least 12,000 feet AGL
Clouds: scattered clouds at 5000 feet AGL
Weather: no significant weather forecast for this period
Text: BECMG 1006/1008 27010KT
Forecast period: 1000 to 1400 UTC 10 May 2021
Forecast type: TEMPORARY: The following changes expected for less than half the time period
Winds: from the WSW (250 degrees) at 17 MPH (15 knots; 7.7 m/s)
gusting to 29 MPH (25 knots; 12.9 m/s)
Visibility: missing
Ceiling: unknown
Clouds: missing
Weather: no significant weather forecast for this period
Text: TEMPO 1010/1014 25015G25KT
Forecast period: 1300 UTC 10 May 2021 to 0300 UTC 11 May 2021
Forecast type: BECOMING: Conditions expected to become as follows by 1500 UTC 10 May 2021
Winds: from the SW (220 degrees) at 12 MPH (10 knots; 5.1 m/s)
Visibility: 6 or more miles (10+ km)
Ceiling: at least 12,000 feet AGL
Clouds: scattered clouds at 5000 feet AGL
Weather: no significant weather forecast for this period